createdAt,value
2023-05-04T00:00:01.376Z,86.12
2023-05-04T00:02:34.410Z,86.33
2023-05-04T00:05:08.238Z,86.27
2023-05-04T00:07:39.332Z,86.37
2023-05-04T00:10:10.790Z,86.55
2023-05-04T00:12:45.276Z,86.32
2023-05-04T00:15:15.913Z,86.53
2023-05-04T00:17:46.921Z,86.61
2023-05-04T00:20:17.434Z,86.47
2023-05-04T00:22:48.924Z,86.48
2023-05-04T00:25:23.003Z,86.46
2023-05-04T00:27:54.165Z,86.61
2023-05-04T00:30:25.571Z,86.83
2023-05-04T00:32:57.415Z,86.78
2023-05-04T00:35:28.922Z,86.75
2023-05-04T00:38:00.176Z,86.86
2023-05-04T00:40:31.296Z,86.58
2023-05-04T00:43:02.297Z,86.91
2023-05-04T00:45:34.202Z,86.76
2023-05-04T00:48:07.194Z,86.94
2023-05-04T00:50:38.764Z,86.79
2023-05-04T00:53:14.177Z,87.03
2023-05-04T00:55:45.351Z,87.12
2023-05-04T00:58:20.285Z,87.01
2023-05-04T01:00:52.377Z,87.40
2023-05-04T01:03:26.365Z,87.60
2023-05-04T01:06:10.584Z,87.87
2023-05-04T01:09:04.150Z,88.05
2023-05-04T01:11:58.045Z,87.90
2023-05-04T01:14:31.082Z,87.45
2023-05-04T01:17:09.569Z,87.34
2023-05-04T01:19:42.926Z,87.40
2023-05-04T01:22:31.080Z,87.44
2023-05-04T01:25:07.642Z,87.56
2023-05-04T01:30:54.834Z,87.37
2023-05-04T01:33:37.952Z,87.41
2023-05-04T01:36:09.889Z,87.20
2023-05-04T01:38:42.313Z,87.03
2023-05-04T01:41:13.787Z,86.88
2023-05-04T01:43:51.429Z,86.83
2023-05-04T01:46:27.862Z,86.33
2023-05-04T01:48:58.293Z,86.41
2023-05-04T01:51:29.378Z,86.43
2023-05-04T01:54:01.273Z,86.33
2023-05-04T01:56:34.512Z,86.20
2023-05-04T01:59:05.872Z,86.06
2023-05-04T02:01:40.426Z,85.94
2023-05-04T02:04:10.723Z,85.96
2023-05-04T02:06:43.710Z,86.10
2023-05-04T02:09:17.011Z,86.14
2023-05-04T02:11:51.822Z,86.15
2023-05-04T02:14:23.210Z,86.06
2023-05-04T02:16:54.920Z,86.09
2023-05-04T02:19:28.122Z,86.07
2023-05-04T02:22:00.379Z,85.97
2023-05-04T02:24:31.521Z,85.72
2023-05-04T02:27:05.260Z,85.77
2023-05-04T02:29:43.458Z,85.72
2023-05-04T02:32:16.226Z,85.72
2023-05-04T02:34:48.187Z,85.58
2023-05-04T02:37:19.226Z,85.60
2023-05-04T02:39:49.346Z,85.50
2023-05-04T02:42:21.835Z,85.46
2023-05-04T02:45:00.969Z,85.54
2023-05-04T02:47:35.033Z,85.58
2023-05-04T02:50:08.548Z,85.62
2023-05-04T02:52:39.377Z,85.56
2023-05-04T02:55:09.730Z,85.43
2023-05-04T02:57:40.671Z,85.55
2023-05-04T03:00:11.642Z,85.61
2023-05-04T03:02:44.797Z,85.46
2023-05-04T03:05:16.159Z,85.43
2023-05-04T03:07:47.268Z,85.47
2023-05-04T03:10:20.846Z,85.37
2023-05-04T03:13:42.014Z,85.49
2023-05-04T03:16:16.401Z,85.36
2023-05-04T03:18:52.970Z,85.38
2023-05-04T03:21:23.854Z,85.41
2023-05-04T03:23:56.007Z,85.44
2023-05-04T03:26:29.191Z,85.45
2023-05-04T03:29:02.421Z,85.53
2023-05-04T03:31:33.998Z,85.58
2023-05-04T03:34:08.384Z,85.62
2023-05-04T03:36:42.324Z,85.57
2023-05-04T03:39:13.551Z,85.57
2023-05-04T03:41:47.451Z,85.67
2023-05-04T03:44:20.547Z,85.89
2023-05-04T03:46:51.800Z,85.83
2023-05-04T03:49:24.851Z,85.80
2023-05-04T03:51:58.651Z,85.77
2023-05-04T03:54:30.663Z,85.74
2023-05-04T03:57:03.972Z,85.51
2023-05-04T03:59:40.990Z,85.54
2023-05-04T04:02:13.143Z,85.39
2023-05-04T04:04:44.201Z,85.36
2023-05-04T04:07:16.024Z,85.35
2023-05-04T04:09:46.623Z,85.40
2023-05-04T04:12:20.002Z,85.43
2023-05-04T04:14:51.671Z,85.37
2023-05-04T04:17:22.920Z,85.44
2023-05-04T04:20:00.009Z,85.44
2023-05-04T04:22:33.051Z,85.24
2023-05-04T04:25:03.638Z,85.33
2023-05-04T04:27:34.806Z,85.34
2023-05-04T04:30:08.041Z,85.33
2023-05-04T04:32:39.653Z,85.24
2023-05-04T04:35:11.422Z,85.26
2023-05-04T04:37:43.977Z,85.19
2023-05-04T04:40:16.120Z,85.02
2023-05-04T04:42:47.175Z,84.98
2023-05-04T04:45:18.882Z,84.90
2023-05-04T04:47:50.474Z,84.96
2023-05-04T04:50:22.333Z,84.87
2023-05-04T04:52:52.488Z,84.91
2023-05-04T04:55:28.737Z,84.95
2023-05-04T04:57:58.896Z,85.02
2023-05-04T05:00:29.662Z,84.92
2023-05-04T05:03:01.441Z,85.02
2023-05-04T05:05:32.420Z,84.85
2023-05-04T05:08:04.399Z,84.90
2023-05-04T05:10:36.316Z,84.87
2023-05-04T05:13:10.036Z,84.79
2023-05-04T05:15:40.483Z,84.86
2023-05-04T05:18:11.300Z,85.01
2023-05-04T05:20:42.563Z,85.00
2023-05-04T05:23:12.838Z,85.02
2023-05-04T05:25:45.125Z,85.06
2023-05-04T05:28:18.924Z,85.13
2023-05-04T05:30:51.068Z,84.88
2023-05-04T05:33:25.952Z,84.86
2023-05-04T05:35:57.747Z,84.92
2023-05-04T05:38:29.787Z,84.92
2023-05-04T05:41:01.651Z,84.79
2023-05-04T05:43:32.544Z,84.67
2023-05-04T05:46:03.411Z,84.77
2023-05-04T05:48:34.857Z,84.76
2023-05-04T05:51:06.296Z,84.73
2023-05-04T05:53:37.254Z,84.87
2023-05-04T05:56:07.849Z,84.91
2023-05-04T05:59:02.213Z,84.95
2023-05-04T06:01:33.433Z,84.74
2023-05-04T06:04:10.951Z,84.90
2023-05-04T06:06:53.249Z,84.77
2023-05-04T06:09:24.281Z,84.77
2023-05-04T06:11:55.912Z,84.86
2023-05-04T06:14:27.516Z,84.77
2023-05-04T06:16:59.604Z,84.56
2023-05-04T06:19:31.574Z,84.53
2023-05-04T06:22:02.940Z,84.73
2023-05-04T06:24:36.692Z,84.70
2023-05-04T06:27:33.830Z,84.81
2023-05-04T06:30:07.347Z,84.61
2023-05-04T06:32:38.896Z,84.78
2023-05-04T06:35:11.266Z,84.57
2023-05-04T06:37:42.658Z,84.56
2023-05-04T06:40:13.805Z,84.58
2023-05-04T06:42:45.862Z,84.55
2023-05-04T06:45:16.016Z,84.58
2023-05-04T06:47:47.619Z,84.63
2023-05-04T06:50:19.459Z,84.57
2023-05-04T06:52:51.152Z,84.55
2023-05-04T06:55:22.353Z,84.43
2023-05-04T06:57:54.523Z,84.38
2023-05-04T07:00:27.104Z,84.55
2023-05-04T07:02:58.906Z,84.64
2023-05-04T07:05:30.981Z,84.54
2023-05-04T07:08:04.134Z,84.53
2023-05-04T07:10:35.843Z,84.68
2023-05-04T07:13:09.271Z,84.28
2023-05-04T07:15:42.104Z,84.49
2023-05-04T07:18:15.905Z,84.46
2023-05-04T07:20:47.709Z,84.44
2023-05-04T07:23:19.087Z,84.58
2023-05-04T07:25:51.925Z,84.53
2023-05-04T07:28:23.928Z,84.55
2023-05-04T07:30:54.630Z,84.53
2023-05-04T07:33:25.533Z,84.26
2023-05-04T07:36:03.581Z,84.45
2023-05-04T07:38:34.555Z,84.28
2023-05-04T07:41:06.654Z,84.35
2023-05-04T07:43:37.761Z,84.28
2023-05-04T07:46:08.920Z,84.33
2023-05-04T07:48:39.970Z,84.52
2023-05-04T07:51:16.351Z,84.68
2023-05-04T07:53:47.843Z,84.55
2023-05-04T07:56:24.823Z,84.49
2023-05-04T07:58:55.300Z,84.42
2023-05-04T08:01:26.118Z,84.32
2023-05-04T08:03:56.501Z,84.32
2023-05-04T08:06:27.278Z,84.43
2023-05-04T08:08:58.394Z,84.46
2023-05-04T08:11:29.732Z,84.55
2023-05-04T08:14:05.394Z,84.47
2023-05-04T08:16:38.306Z,84.67
2023-05-04T08:19:08.915Z,84.64
2023-05-04T08:21:39.936Z,84.44
2023-05-04T08:24:10.973Z,84.43
2023-05-04T08:26:43.752Z,84.43
2023-05-04T08:29:15.235Z,84.38
2023-05-04T08:31:47.810Z,84.47
2023-05-04T08:34:18.654Z,84.34
2023-05-04T08:36:51.970Z,84.32
2023-05-04T08:39:23.777Z,84.40
2023-05-04T08:41:55.375Z,84.62
2023-05-04T08:44:26.417Z,84.75
2023-05-04T08:46:58.687Z,84.70
2023-05-04T08:49:30.687Z,84.80
2023-05-04T08:52:03.078Z,84.73
2023-05-04T08:54:34.065Z,84.62
2023-05-04T08:57:07.213Z,84.53
2023-05-04T08:59:39.793Z,84.59
2023-05-04T09:02:16.365Z,84.50
2023-05-04T09:04:48.540Z,84.39
2023-05-04T09:07:25.014Z,84.54
2023-05-04T09:09:56.252Z,84.52
2023-05-04T09:12:29.927Z,84.64
2023-05-04T09:15:01.647Z,84.65
2023-05-04T09:17:32.603Z,84.79
2023-05-04T09:20:05.225Z,84.91
2023-05-04T09:22:46.951Z,84.96
2023-05-04T09:25:19.333Z,84.84
2023-05-04T09:27:57.806Z,85.03
2023-05-04T09:30:29.126Z,84.96
2023-05-04T09:33:01.011Z,85.04
2023-05-04T09:35:34.390Z,85.11
2023-05-04T09:38:07.448Z,84.98
2023-05-04T09:40:45.728Z,85.12
2023-05-04T09:43:17.615Z,84.94
2023-05-04T09:45:50.845Z,84.90
2023-05-04T09:48:31.069Z,84.93
2023-05-04T09:51:08.600Z,84.88
2023-05-04T09:53:42.382Z,84.84
2023-05-04T09:56:32.971Z,85.02
2023-05-04T09:59:05.393Z,84.91
2023-05-04T10:01:36.921Z,84.84
2023-05-04T10:04:09.947Z,84.92
2023-05-04T10:06:45.905Z,84.87
2023-05-04T10:09:17.380Z,84.92
2023-05-04T10:11:47.632Z,84.94
2023-05-04T10:14:18.370Z,85.06
2023-05-04T10:17:16.650Z,85.21
2023-05-04T10:20:07.717Z,85.20
2023-05-04T10:23:13.293Z,85.24
2023-05-04T10:26:15.929Z,85.19
2023-05-04T10:29:15.825Z,85.20
2023-05-04T10:31:47.370Z,85.08
2023-05-04T10:34:33.471Z,85.17
2023-05-04T10:37:07.764Z,85.12
2023-05-04T10:39:42.296Z,85.14
2023-05-04T10:42:12.610Z,85.17
2023-05-04T10:44:56.750Z,85.20
2023-05-04T10:47:38.624Z,85.19
2023-05-04T10:50:12.245Z,84.98
2023-05-04T10:52:59.543Z,85.09
2023-05-04T10:55:42.872Z,85.07
2023-05-04T10:58:17.671Z,84.88
2023-05-04T11:00:49.681Z,84.83
2023-05-04T11:03:20.663Z,84.76
2023-05-04T11:05:53.830Z,84.79
2023-05-04T11:08:27.228Z,84.77
2023-05-04T11:11:08.572Z,84.72
2023-05-04T11:13:43.079Z,84.64
2023-05-04T11:16:16.506Z,84.40
2023-05-04T11:18:47.797Z,84.25
2023-05-04T11:21:30.646Z,84.53
2023-05-04T11:24:03.701Z,84.44
2023-05-04T11:26:33.949Z,84.19
2023-05-04T11:29:16.344Z,84.33
2023-05-04T11:31:57.993Z,84.16
2023-05-04T11:34:33.230Z,83.94
2023-05-04T11:37:08.774Z,84.02
2023-05-04T11:39:40.387Z,83.86
2023-05-04T11:42:11.133Z,83.77
2023-05-04T11:44:42.875Z,83.50
2023-05-04T11:47:15.386Z,83.40
2023-05-04T11:49:51.417Z,83.47
2023-05-04T11:52:30.218Z,83.10
2023-05-04T11:55:01.501Z,82.91
2023-05-04T11:57:34.032Z,82.50
2023-05-04T12:00:08.775Z,81.90
2023-05-04T12:02:40.505Z,82.18
2023-05-04T12:05:16.406Z,82.07
2023-05-04T12:07:59.200Z,81.59
2023-05-04T12:10:37.278Z,81.36
2023-05-04T12:13:19.452Z,81.59
2023-05-04T12:15:51.295Z,80.65
2023-05-04T12:18:31.751Z,81.36
2023-05-04T12:21:11.720Z,80.29
2023-05-04T12:23:43.291Z,80.03
2023-05-04T12:26:17.302Z,79.06
2023-05-04T12:28:49.787Z,79.37
2023-05-04T12:31:21.324Z,78.84
2023-05-04T12:34:15.383Z,78.33
2023-05-04T12:36:46.564Z,78.09
2023-05-04T12:39:20.345Z,78.72
2023-05-04T12:41:51.544Z,78.17
2023-05-04T12:44:25.598Z,78.45
2023-05-04T12:47:00.004Z,78.31
2023-05-04T12:49:31.007Z,78.15
2023-05-04T12:52:06.153Z,76.62
2023-05-04T12:54:39.719Z,77.59
2023-05-04T12:57:12.938Z,78.89
2023-05-04T12:59:44.473Z,78.52
2023-05-04T13:02:16.392Z,78.56
2023-05-04T13:04:47.988Z,77.97
2023-05-04T13:07:19.873Z,78.80
2023-05-04T13:09:51.852Z,79.02
2023-05-04T13:12:23.832Z,77.98
2023-05-04T13:14:58.007Z,78.77
2023-05-04T13:17:31.754Z,79.32
2023-05-04T13:20:07.712Z,80.04
2023-05-04T13:22:39.761Z,80.32
2023-05-04T13:25:11.218Z,79.76
2023-05-04T13:27:43.147Z,79.42
2023-05-04T13:30:15.921Z,78.09
2023-05-04T13:32:47.138Z,78.63
2023-05-04T13:35:17.866Z,78.35
2023-05-04T13:37:49.553Z,78.98
2023-05-04T13:40:20.740Z,78.34
2023-05-04T13:42:51.809Z,79.08
2023-05-04T13:45:23.516Z,78.98
2023-05-04T13:47:55.704Z,79.97
2023-05-04T13:50:27.823Z,79.30
2023-05-04T13:53:06.597Z,79.70
2023-05-04T13:55:40.650Z,78.52
2023-05-04T13:58:11.523Z,78.56
2023-05-04T14:00:42.947Z,79.28
2023-05-04T14:03:14.124Z,79.11
2023-05-04T14:05:44.774Z,79.13
2023-05-04T14:08:16.613Z,78.84
2023-05-04T14:10:47.953Z,79.47
2023-05-04T14:13:19.682Z,78.73
2023-05-04T14:15:51.739Z,78.86
2023-05-04T14:18:23.242Z,79.28
2023-05-04T14:20:55.611Z,79.25
2023-05-04T14:23:26.532Z,79.58
2023-05-04T14:25:59.704Z,79.18
2023-05-04T14:28:31.471Z,79.87
2023-05-04T14:31:10.005Z,79.44
2023-05-04T14:33:44.173Z,78.96
2023-05-04T14:36:15.365Z,79.18
2023-05-04T14:38:45.580Z,78.48
2023-05-04T14:41:16.091Z,79.00
2023-05-04T14:43:46.476Z,79.24
2023-05-04T14:46:16.867Z,79.16
2023-05-04T14:48:48.098Z,78.91
2023-05-04T14:51:26.075Z,79.27
2023-05-04T14:53:57.018Z,78.37
2023-05-04T14:56:29.748Z,79.06
2023-05-04T14:59:03.333Z,79.67
2023-05-04T15:01:34.035Z,78.35
2023-05-04T15:04:05.979Z,77.93
2023-05-04T15:06:40.386Z,79.01
2023-05-04T15:09:11.616Z,79.69
2023-05-04T15:11:43.246Z,79.09
2023-05-04T15:14:13.920Z,79.29
2023-05-04T15:16:44.753Z,79.82
2023-05-04T15:19:16.502Z,79.55
2023-05-04T15:21:48.259Z,78.77
2023-05-04T15:24:20.555Z,78.81
2023-05-04T15:26:51.384Z,78.84
2023-05-04T15:29:22.404Z,79.05
2023-05-04T15:32:01.005Z,79.77
2023-05-04T15:34:32.700Z,79.14
2023-05-04T15:37:06.637Z,79.72
2023-05-04T15:39:38.745Z,79.55
2023-05-04T15:42:10.197Z,79.56
2023-05-04T15:44:41.383Z,79.85
2023-05-04T15:47:15.222Z,80.68
2023-05-04T15:49:46.466Z,80.11
2023-05-04T15:52:17.914Z,79.45
2023-05-04T15:54:50.242Z,79.54
2023-05-04T15:57:21.736Z,79.14
2023-05-04T15:59:52.699Z,79.77
2023-05-04T16:02:23.757Z,80.14
2023-05-04T16:04:55.359Z,80.13
2023-05-04T16:07:26.750Z,80.69
2023-05-04T16:09:57.837Z,80.39
2023-05-04T16:12:28.790Z,79.70
2023-05-04T16:15:01.541Z,80.36
2023-05-04T16:17:37.854Z,79.71
2023-05-04T16:20:09.688Z,79.97
2023-05-04T16:22:40.468Z,79.74
2023-05-04T16:25:11.558Z,79.31
2023-05-04T16:27:43.824Z,79.56
2023-05-04T16:30:17.875Z,79.72
2023-05-04T16:32:48.984Z,80.17
2023-05-04T16:35:20.248Z,80.06
2023-05-04T16:37:51.001Z,80.18
2023-05-04T16:40:21.997Z,79.98
2023-05-04T16:42:53.205Z,80.10
2023-05-04T16:45:27.529Z,80.35
2023-05-04T16:47:59.599Z,81.16
2023-05-04T16:50:30.924Z,81.45
2023-05-04T16:53:01.888Z,81.23
2023-05-04T16:55:32.964Z,81.85
2023-05-04T16:58:03.900Z,82.17
2023-05-04T17:00:34.186Z,81.92
2023-05-04T17:03:05.507Z,81.91
2023-05-04T17:05:37.540Z,81.26
2023-05-04T17:08:10.045Z,81.09
2023-05-04T17:10:42.079Z,80.26
2023-05-04T17:13:16.972Z,80.43
2023-05-04T17:15:48.299Z,79.67
2023-05-04T17:18:20.582Z,80.34
2023-05-04T17:20:52.156Z,80.22
2023-05-04T17:23:23.365Z,80.27
2023-05-04T17:25:54.769Z,80.28
2023-05-04T17:28:25.391Z,79.89
2023-05-04T17:30:56.933Z,80.21
2023-05-04T17:33:28.159Z,79.57
2023-05-04T17:35:59.834Z,80.63
2023-05-04T17:38:31.668Z,80.76
2023-05-04T17:41:02.978Z,80.94
2023-05-04T17:43:35.823Z,80.63
2023-05-04T17:46:07.137Z,81.17
2023-05-04T17:48:38.887Z,80.60
2023-05-04T17:51:12.438Z,80.73
2023-05-04T17:53:45.447Z,79.56
2023-05-04T17:56:18.687Z,78.78
2023-05-04T17:58:48.975Z,78.81
2023-05-04T18:01:20.518Z,79.15
2023-05-04T18:03:51.454Z,78.70
2023-05-04T18:06:22.843Z,80.40
2023-05-04T18:08:55.127Z,80.02
2023-05-04T18:11:25.357Z,81.34
2023-05-04T18:13:58.667Z,81.40
2023-05-04T18:16:31.304Z,81.75
2023-05-04T18:19:01.886Z,82.36
2023-05-04T18:21:35.391Z,82.39
2023-05-04T18:24:06.462Z,82.71
2023-05-04T18:26:37.899Z,82.90
2023-05-04T18:29:18.358Z,82.45
2023-05-04T18:31:52.447Z,82.69
2023-05-04T18:34:23.554Z,82.78
2023-05-04T18:36:54.580Z,82.77
2023-05-04T18:39:24.652Z,82.81
2023-05-04T18:41:55.762Z,82.85
2023-05-04T18:44:26.757Z,83.09
2023-05-04T18:46:57.552Z,83.50
2023-05-04T18:49:35.402Z,83.18
2023-05-04T18:52:06.912Z,83.14
2023-05-04T18:54:39.153Z,82.96
2023-05-04T18:57:15.668Z,83.32
2023-05-04T18:59:47.434Z,82.93
2023-05-04T19:02:18.310Z,82.88
2023-05-04T19:04:49.358Z,83.14
2023-05-04T19:07:20.765Z,83.40
2023-05-04T19:09:50.815Z,83.33
2023-05-04T19:12:21.350Z,83.29
2023-05-04T19:14:54.067Z,83.06
2023-05-04T19:17:25.841Z,83.17
2023-05-04T19:19:59.930Z,83.34
2023-05-04T19:22:31.205Z,83.93
2023-05-04T19:25:01.514Z,84.01
2023-05-04T19:27:32.150Z,84.13
2023-05-04T19:30:04.543Z,84.17
2023-05-04T19:32:35.518Z,84.41
2023-05-04T19:35:05.649Z,84.64
2023-05-04T19:37:39.232Z,84.59
2023-05-04T19:40:12.364Z,84.99
2023-05-04T19:42:48.565Z,84.91
2023-05-04T19:45:20.012Z,84.83
2023-05-04T19:47:52.728Z,85.31
2023-05-04T19:50:23.919Z,85.40
2023-05-04T19:52:54.365Z,85.08
2023-05-04T19:55:26.126Z,85.33
2023-05-04T19:57:58.156Z,85.20
2023-05-04T20:00:28.678Z,85.27
2023-05-04T20:02:58.752Z,85.23
2023-05-04T20:05:29.838Z,85.39
2023-05-04T20:08:02.119Z,85.84
2023-05-04T20:10:35.162Z,85.60
2023-05-04T20:13:05.587Z,85.61
2023-05-04T20:15:36.461Z,85.53
2023-05-04T20:18:08.261Z,85.59
2023-05-04T20:20:39.302Z,85.60
2023-05-04T20:23:10.793Z,85.92
2023-05-04T20:25:43.330Z,86.31
2023-05-04T20:28:14.945Z,86.28
2023-05-04T20:30:48.965Z,86.24
2023-05-04T20:33:20.775Z,86.34
2023-05-04T20:35:51.254Z,86.37
2023-05-04T20:38:22.058Z,86.29
2023-05-04T20:40:53.473Z,86.36
2023-05-04T20:43:24.699Z,86.55
2023-05-04T20:45:54.856Z,86.60
2023-05-04T20:48:27.929Z,86.62
2023-05-04T20:51:13.535Z,86.74
2023-05-04T20:53:44.948Z,86.64
2023-05-04T20:56:16.777Z,86.74
2023-05-04T20:58:47.266Z,86.65
2023-05-04T21:01:18.581Z,86.57
2023-05-04T21:03:52.202Z,86.52
2023-05-04T21:06:26.684Z,86.65
2023-05-04T21:08:57.145Z,86.73
2023-05-04T21:11:28.497Z,86.71
2023-05-04T21:13:59.796Z,86.69
2023-05-04T21:16:31.725Z,86.80
2023-05-04T21:19:02.285Z,86.78
2023-05-04T21:21:37.033Z,86.77
2023-05-04T21:24:09.442Z,86.86
2023-05-04T21:26:40.410Z,86.79
2023-05-04T21:29:16.216Z,86.69
2023-05-04T21:31:49.570Z,86.45
2023-05-04T21:34:20.307Z,86.36
2023-05-04T21:36:51.544Z,86.20
2023-05-04T21:39:24.940Z,86.13
2023-05-04T21:41:55.971Z,86.03
2023-05-04T21:44:27.706Z,85.82
2023-05-04T21:46:58.186Z,85.68
2023-05-04T21:49:29.692Z,85.73
2023-05-04T21:52:00.170Z,85.92
2023-05-04T21:54:30.943Z,85.85
2023-05-04T21:57:02.130Z,85.72
2023-05-04T21:59:33.377Z,85.68
2023-05-04T22:02:05.533Z,85.65
2023-05-04T22:04:35.770Z,85.62
2023-05-04T22:07:07.925Z,85.82
2023-05-04T22:09:39.759Z,85.52
2023-05-04T22:12:10.814Z,85.47
2023-05-04T22:14:42.878Z,85.61
2023-05-04T22:17:14.986Z,85.55
2023-05-04T22:19:46.894Z,85.36
2023-05-04T22:22:18.404Z,85.56
2023-05-04T22:24:49.413Z,85.63
2023-05-04T22:27:19.921Z,85.53
2023-05-04T22:29:53.339Z,85.49
2023-05-04T22:32:23.656Z,85.42
2023-05-04T22:34:53.729Z,84.95
2023-05-04T22:37:25.191Z,85.10
2023-05-04T22:39:56.502Z,85.07
2023-05-04T22:42:27.935Z,84.79
2023-05-04T22:45:00.257Z,84.70
2023-05-04T22:47:32.664Z,84.75
2023-05-04T22:50:04.210Z,84.73
2023-05-04T22:52:35.681Z,84.45
2023-05-04T22:55:06.210Z,84.12
2023-05-04T22:57:37.406Z,83.97
2023-05-04T23:00:09.726Z,84.09
2023-05-04T23:02:41.352Z,84.18
2023-05-04T23:05:12.878Z,83.98
2023-05-04T23:07:44.567Z,83.93
2023-05-04T23:10:16.022Z,84.03
2023-05-04T23:12:48.129Z,83.91
2023-05-04T23:15:19.632Z,83.93
2023-05-04T23:17:50.851Z,84.10
2023-05-04T23:20:22.160Z,84.14
2023-05-04T23:22:54.025Z,84.17
2023-05-04T23:25:24.987Z,84.04
2023-05-04T23:27:57.656Z,84.18
2023-05-04T23:30:29.445Z,84.14
2023-05-04T23:33:00.918Z,83.99
2023-05-04T23:35:32.574Z,84.01
2023-05-04T23:38:03.173Z,84.06
2023-05-04T23:40:40.077Z,84.07
2023-05-04T23:43:11.945Z,84.27
2023-05-04T23:45:43.430Z,84.31
2023-05-04T23:48:15.205Z,84.42
2023-05-04T23:51:03.754Z,84.50
2023-05-04T23:53:40.407Z,84.44
2023-05-04T23:56:17.198Z,84.63
2023-05-04T23:58:48.809Z,84.62
